Time;durP1;ratioP1;P1;durP2;ratioP2;P2;SDS_P1;SDS_P2;PMS_P1;PMS_P2;Temp;Humidity;BMP_temperature;BMP_pressure;BME280_temperature;BME280_humidity;BME280_pressure;Samples;Min_cycle;Max_cycle;Signal;HPM_P1;HPM_P2
2022/05/21 00:01:27;;;;;;;4.40;3.80;;;16.40;99.90;;;;;;6276504;22;20077;-83
2022/05/21 00:04:16;;;;;;;7.30;4.43;;;16.30;99.90;;;;;;6278254;22;20020;-85
2022/05/21 00:07:03;;;;;;;7.25;3.40;;;16.30;99.90;;;;;;6277530;22;20338;-86
2022/05/21 00:09:50;;;;;;;6.97;3.78;;;16.30;99.90;;;;;;6279885;22;20100;-85
2022/05/21 00:12:38;;;;;;;4.50;3.00;;;16.30;99.90;;;;;;6278753;22;20055;-85
2022/05/21 00:15:31;;;;;;;6.20;3.67;;;16.30;99.90;;;;;;6258800;22;20039;-85
2022/05/21 00:18:19;;;;;;;6.28;3.17;;;16.30;99.90;;;;;;6280580;22;20034;-87
2022/05/21 00:21:09;;;;;;;3.95;2.60;;;16.20;99.90;;;;;;6279537;22;20322;-89
2022/05/21 00:23:58;;;;;;;5.53;2.47;;;16.20;99.90;;;;;;6281425;22;20429;-86
2022/05/21 00:26:48;;;;;;;4.20;2.75;;;16.10;99.90;;;;;;6281362;22;20019;-87
2022/05/21 00:29:35;;;;;;;4.43;2.90;;;16.10;99.90;;;;;;6259765;22;20093;-88
2022/05/21 00:32:23;;;;;;;3.08;2.53;;;16.00;99.90;;;;;;6278979;22;20077;-84
2022/05/21 00:35:10;;;;;;;4.75;2.30;;;15.90;99.90;;;;;;6284671;22;20151;-86
2022/05/21 00:37:58;;;;;;;4.20;2.53;;;15.90;99.90;;;;;;6285357;22;20027;-87
2022/05/21 00:40:47;;;;;;;7.25;2.40;;;15.80;99.90;;;;;;6287428;22;20019;-88
2022/05/21 00:43:42;;;;;;;2.88;2.45;;;15.80;99.90;;;;;;6286698;22;20024;-88
2022/05/21 00:46:37;;;;;;;4.20;2.45;;;15.60;99.90;;;;;;6272435;22;20023;-86
2022/05/21 00:49:28;;;;;;;3.22;2.60;;;15.60;99.90;;;;;;6294078;22;20019;-85
2022/05/21 00:52:19;;;;;;;3.47;2.50;;;15.50;99.90;;;;;;6296071;22;20019;-85
2022/05/21 00:55:15;;;;;;;4.00;2.20;;;15.40;99.90;;;;;;6282017;22;20324;-85
2022/05/21 01:01:16;;;;;;;3.72;1.95;;;15.30;99.90;;;;;;6279150;22;20030;-88
2022/05/21 01:04:03;;;;;;;7.95;2.10;;;15.20;99.90;;;;;;6279118;22;20020;-83
2022/05/21 01:06:52;;;;;;;3.05;1.75;;;15.20;99.90;;;;;;6281937;22;20061;-85
2022/05/21 01:10:03;;;;;;;3.00;1.92;;;15.10;99.90;;;;;;6281399;22;20057;-86
2022/05/21 01:12:53;;;;;;;3.63;2.15;;;14.90;99.90;;;;;;6277690;22;20075;-88
2022/05/21 01:15:44;;;;;;;4.30;2.42;;;14.90;99.90;;;;;;6279129;22;20019;-88
2022/05/21 01:18:31;;;;;;;2.30;2.10;;;14.80;99.90;;;;;;6280623;22;20047;-86
2022/05/21 01:21:19;;;;;;;4.05;2.33;;;14.70;99.90;;;;;;6282247;22;20088;-84
2022/05/21 01:24:08;;;;;;;4.82;2.40;;;14.60;99.90;;;;;;6280620;22;20372;-85
2022/05/21 01:26:55;;;;;;;2.67;2.10;;;14.50;99.90;;;;;;6280964;22;20024;-87
2022/05/21 01:29:43;;;;;;;2.35;1.90;;;14.40;99.90;;;;;;6282437;22;20407;-87
2022/05/21 01:32:33;;;;;;;2.75;1.77;;;14.30;99.90;;;;;;6282343;22;20027;-88
2022/05/21 01:35:23;;;;;;;2.58;2.17;;;14.20;99.90;;;;;;6284204;22;20101;-89
2022/05/21 01:38:13;;;;;;;4.45;2.28;;;14.10;99.90;;;;;;6283011;22;20031;-86
2022/05/21 01:41:05;;;;;;;4.55;2.08;;;14.00;99.90;;;;;;6261066;22;20038;-87
2022/05/21 01:47:05;;;;;;;3.50;2.15;;;14.00;99.90;;;;;;6286939;22;20023;-86
2022/05/21 01:49:55;;;;;;;2.55;1.83;;;14.00;99.90;;;;;;6292044;22;20064;-85
2022/05/21 01:52:42;;;;;;;4.95;1.60;;;14.00;99.90;;;;;;6295157;22;20075;-83
2022/05/21 01:55:29;;;;;;;2.45;1.73;;;14.00;99.90;;;;;;6296802;22;20062;-79
2022/05/21 01:58:16;;;;;;;5.90;1.85;;;14.00;99.90;;;;;;6296067;22;20051;-87
2022/05/21 02:01:04;;;;;;;4.43;1.70;;;14.00;99.90;;;;;;6289885;22;20051;-85
2022/05/21 02:03:51;;;;;;;2.10;1.90;;;14.00;99.90;;;;;;6264820;22;20019;-86
2022/05/21 02:06:39;;;;;;;2.92;1.65;;;14.00;99.90;;;;;;6278560;22;20031;-87
2022/05/21 02:09:33;;;;;;;3.72;1.58;;;14.00;99.90;;;;;;6256222;22;20323;-84
2022/05/21 02:12:24;;;;;;;5.50;1.63;;;13.90;99.90;;;;;;6277188;22;20020;-84
2022/05/21 02:15:15;;;;;;;3.15;1.80;;;13.90;99.90;;;;;;6255353;22;20089;-86
2022/05/21 02:18:04;;;;;;;4.75;2.15;;;13.80;99.90;;;;;;6280155;22;20099;-84
2022/05/21 02:20:55;;;;;;;2.95;1.67;;;13.80;99.90;;;;;;6277224;22;20276;-84
2022/05/21 02:23:42;;;;;;;3.05;1.55;;;13.90;99.90;;;;;;6276994;22;20035;-87
2022/05/21 02:26:33;;;;;;;6.28;2.22;;;13.80;99.90;;;;;;6255601;22;20019;-83
2022/05/21 02:29:25;;;;;;;4.57;1.42;;;13.70;99.90;;;;;;6277079;22;20108;-84
2022/05/21 02:32:14;;;;;;;2.20;1.52;;;13.60;99.90;;;;;;6262354;22;20040;-86
2022/05/21 02:35:03;;;;;;;2.85;1.67;;;13.60;99.90;;;;;;6292560;22;20028;-84
2022/05/21 02:40:57;;;;;;;3.05;1.73;;;13.40;99.90;;;;;;6287318;22;20019;-87
2022/05/21 02:43:46;;;;;;;5.57;2.05;;;13.30;99.90;;;;;;6289176;22;20484;-87
2022/05/21 02:46:33;;;;;;;5.80;1.83;;;13.10;99.90;;;;;;6294510;22;20027;-85
2022/05/21 02:49:21;;;;;;;4.75;2.08;;;13.00;99.90;;;;;;6271924;22;20020;-85
2022/05/21 02:52:11;;;;;;;2.00;1.80;;;12.90;99.90;;;;;;6275689;22;20069;-79
2022/05/21 02:55:00;;;;;;;6.28;2.60;;;12.80;99.90;;;;;;6294914;22;20034;-88
2022/05/21 02:57:53;;;;;;;3.72;2.22;;;12.70;99.90;;;;;;6289637;22;20050;-91
2022/05/21 03:00:44;;;;;;;3.53;2.60;;;12.60;99.90;;;;;;6288891;22;20272;-87
2022/05/21 03:03:38;;;;;;;3.72;2.40;;;12.60;99.90;;;;;;6279691;22;20023;-85
2022/05/21 03:06:27;;;;;;;2.38;2.17;;;12.60;99.90;;;;;;6278367;22;20023;-88
2022/05/21 03:12:22;;;;;;;9.43;2.80;;;12.50;99.90;;;;;;6275233;22;20078;-87
2022/05/21 03:15:12;;;;;;;3.35;2.83;;;12.40;99.90;;;;;;6276441;22;20419;-90
2022/05/21 03:18:03;;;;;;;5.85;2.60;;;12.30;99.90;;;;;;6277599;22;20055;-88
2022/05/21 03:20:52;;;;;;;3.88;2.42;;;12.20;99.90;;;;;;6275856;22;20184;-89
2022/05/21 03:23:41;;;;;;;6.35;2.65;;;12.00;99.90;;;;;;6276775;22;20035;-87
2022/05/21 03:26:31;;;;;;;6.70;3.13;;;11.90;99.90;;;;;;6274424;22;20137;-86
2022/05/21 03:29:21;;;;;;;4.53;2.83;;;11.80;99.90;;;;;;6276109;22;20110;-88
2022/05/21 03:32:11;;;;;;;4.50;2.95;;;11.70;99.90;;;;;;6275373;22;20027;-89
2022/05/21 03:34:58;;;;;;;2.90;2.55;;;11.60;99.90;;;;;;6277401;22;20062;-88
2022/05/21 03:37:47;;;;;;;3.22;2.38;;;11.60;99.90;;;;;;6277283;22;20083;-87
2022/05/21 03:40:34;;;;;;;3.28;2.92;;;11.50;99.90;;;;;;6252772;22;20051;-87
2022/05/21 03:43:22;;;;;;;2.92;2.60;;;11.50;99.90;;;;;;6278193;22;20023;-86
2022/05/21 03:46:09;;;;;;;5.85;3.08;;;11.40;99.90;;;;;;6254491;22;20058;-87
2022/05/21 03:48:56;;;;;;;5.03;3.35;;;11.30;99.90;;;;;;6278725;22;20118;-87
2022/05/21 03:51:46;;;;;;;3.40;3.10;;;11.30;99.90;;;;;;6280217;22;20059;-87
2022/05/21 03:54:33;;;;;;;4.32;3.20;;;11.30;99.90;;;;;;6276477;22;20031;-88
2022/05/21 03:57:22;;;;;;;3.60;3.28;;;11.20;99.90;;;;;;6275034;22;20104;-88
2022/05/21 04:00:13;;;;;;;4.70;3.30;;;11.10;99.90;;;;;;6276402;22;20157;-89
2022/05/21 04:03:01;;;;;;;7.53;3.42;;;11.00;99.90;;;;;;6277125;22;20059;-87
2022/05/21 04:05:53;;;;;;;6.15;3.75;;;11.10;99.90;;;;;;6275054;22;20095;-88
2022/05/21 04:08:41;;;;;;;7.10;4.10;;;11.20;99.90;;;;;;6254222;22;20117;-86
2022/05/21 04:11:28;;;;;;;5.70;3.33;;;11.10;99.90;;;;;;6287363;22;20027;-87
2022/05/21 04:14:15;;;;;;;5.10;3.67;;;11.10;99.90;;;;;;6276100;22;20097;-89
2022/05/21 04:17:09;;;;;;;6.50;3.85;;;11.00;99.90;;;;;;6273396;22;20032;-86
2022/05/21 04:19:58;;;;;;;4.03;3.63;;;11.00;99.90;;;;;;6272237;22;20530;-87
2022/05/21 04:22:47;;;;;;;8.35;4.32;;;11.00;99.90;;;;;;6269725;22;20372;-84
2022/05/21 04:25:35;;;;;;;9.32;4.80;;;11.00;99.90;;;;;;6269857;22;20305;-87
2022/05/21 04:28:22;;;;;;;5.88;4.30;;;11.00;99.90;;;;;;6270214;22;20163;-85
2022/05/21 04:31:11;;;;;;;6.07;4.22;;;11.00;99.90;;;;;;6269547;22;20027;-85
2022/05/21 04:33:58;;;;;;;5.35;3.97;;;11.00;99.90;;;;;;6271207;22;20031;-87
2022/05/21 04:36:46;;;;;;;4.55;3.60;;;11.10;99.90;;;;;;6269321;22;20031;-85
2022/05/21 04:39:36;;;;;;;4.18;2.97;;;11.20;99.90;;;;;;6249957;22;20097;-87
2022/05/21 04:42:25;;;;;;;3.05;2.65;;;11.30;99.90;;;;;;6274209;22;20091;-89
2022/05/21 04:45:14;;;;;;;7.22;3.15;;;11.40;99.90;;;;;;6278078;22;20023;-87
2022/05/21 04:48:05;;;;;;;6.80;2.80;;;11.50;99.90;;;;;;6280708;22;20074;-84
2022/05/21 04:51:02;;;;;;;3.90;2.80;;;11.60;99.90;;;;;;6284819;22;20051;-84
2022/05/21 04:53:49;;;;;;;3.80;2.70;;;11.60;99.90;;;;;;6251709;22;20157;-85
2022/05/21 04:56:36;;;;;;;3.10;2.53;;;11.70;99.90;;;;;;6271177;22;20081;-88
2022/05/21 04:59:26;;;;;;;3.88;2.78;;;11.70;99.90;;;;;;6273224;22;20027;-87
2022/05/21 05:02:14;;;;;;;7.68;3.03;;;11.90;99.90;;;;;;6272807;22;20324;-89
2022/05/21 05:05:01;;;;;;;4.18;2.92;;;12.10;99.90;;;;;;6252029;22;20075;-85
2022/05/21 05:07:53;;;;;;;4.03;2.55;;;12.20;99.90;;;;;;6250175;22;20079;-88
2022/05/21 05:10:40;;;;;;;4.35;2.50;;;12.30;99.90;;;;;;6271221;22;20038;-87
2022/05/21 05:13:29;;;;;;;3.47;2.45;;;12.40;99.90;;;;;;6271493;22;20065;-86
2022/05/21 05:16:17;;;;;;;4.82;2.20;;;12.60;99.90;;;;;;6250674;22;20085;-87
2022/05/21 05:19:04;;;;;;;2.60;2.15;;;12.70;99.90;;;;;;6273378;22;20032;-87
2022/05/21 05:21:52;;;;;;;2.72;2.53;;;12.80;99.90;;;;;;6271555;22;20023;-85
2022/05/21 05:24:42;;;;;;;5.28;2.80;;;12.80;99.90;;;;;;6273320;22;20024;-84
2022/05/21 05:27:29;;;;;;;4.03;2.35;;;13.00;99.90;;;;;;6274272;22;20020;-84
2022/05/21 05:30:18;;;;;;;3.10;2.33;;;13.10;99.90;;;;;;6272324;22;20035;-87
2022/05/21 05:33:05;;;;;;;3.65;2.30;;;13.20;99.90;;;;;;6273659;22;20127;-85
2022/05/21 05:35:53;;;;;;;3.90;2.30;;;13.30;99.90;;;;;;6272515;22;20081;-87
2022/05/21 05:38:41;;;;;;;2.22;2.03;;;13.40;99.90;;;;;;6271533;22;20031;-86
2022/05/21 05:41:29;;;;;;;4.03;2.00;;;13.50;99.90;;;;;;6272380;22;20023;-85
2022/05/21 05:44:20;;;;;;;3.47;2.00;;;13.50;99.90;;;;;;6271583;22;20249;-86
2022/05/21 05:47:09;;;;;;;3.30;2.15;;;13.60;99.90;;;;;;6257243;22;20079;-83
2022/05/21 05:49:57;;;;;;;2.67;2.00;;;13.60;99.90;;;;;;6284374;22;20046;-83
2022/05/21 05:52:45;;;;;;;3.60;2.00;;;13.60;99.90;;;;;;6275436;22;20023;-85
2022/05/21 05:55:34;;;;;;;2.28;1.80;;;13.70;99.90;;;;;;6251426;22;20028;-88
2022/05/21 06:01:27;;;;;;;2.03;1.52;;;13.90;99.90;;;;;;6271795;22;20030;-88
2022/05/21 06:04:17;;;;;;;2.47;1.65;;;14.00;99.90;;;;;;6274660;22;20130;-85
2022/05/21 06:07:05;;;;;;;4.35;1.70;;;14.10;99.90;;;;;;6277374;22;20019;-85
2022/05/21 06:09:54;;;;;;;2.22;1.83;;;14.20;99.90;;;;;;6277410;22;20085;-83
2022/05/21 06:12:44;;;;;;;5.68;1.40;;;14.30;99.90;;;;;;6275261;22;20107;-86
2022/05/21 06:15:34;;;;;;;2.92;1.98;;;14.30;99.90;;;;;;6276774;22;20265;-83
2022/05/21 06:18:22;;;;;;;3.63;1.42;;;14.40;99.90;;;;;;6276860;22;20027;-86
2022/05/21 06:21:10;;;;;;;3.20;1.58;;;14.50;99.90;;;;;;6284024;22;20024;-89
2022/05/21 06:23:57;;;;;;;2.47;1.60;;;14.70;99.90;;;;;;6281412;22;20476;-82
2022/05/21 06:26:44;;;;;;;3.78;1.52;;;14.90;99.90;;;;;;6279756;22;20024;-84
2022/05/21 06:29:32;;;;;;;1.38;1.15;;;15.10;99.90;;;;;;6279509;22;20049;-84
2022/05/21 06:32:19;;;;;;;4.55;1.42;;;15.40;99.90;;;;;;6267731;22;20043;-88
2022/05/21 06:35:10;;;;;;;3.60;1.20;;;15.80;99.90;;;;;;6287486;22;20023;-86
2022/05/21 06:38:03;;;;;;;2.63;0.80;;;16.00;99.90;;;;;;6286230;22;20032;-84
2022/05/21 06:40:50;;;;;;;3.97;0.95;;;16.40;99.90;;;;;;6292621;22;20055;-83
2022/05/21 06:43:38;;;;;;;1.98;1.00;;;16.70;99.90;;;;;;6270860;22;20034;-86
2022/05/21 06:46:25;;;;;;;1.52;0.90;;;16.90;99.80;;;;;;6261399;22;20031;-83
2022/05/21 06:49:12;;;;;;;1.63;0.70;;;17.10;98.70;;;;;;6281401;22;20039;-82
2022/05/21 06:51:59;;;;;;;2.83;1.10;;;17.40;97.90;;;;;;6284464;22;20137;-86
2022/05/21 06:54:47;;;;;;;2.08;1.13;;;17.70;95.50;;;;;;6274430;22;20024;-84
2022/05/21 06:57:34;;;;;;;0.90;0.90;;;17.80;93.90;;;;;;6278885;22;20031;-86
2022/05/21 07:00:23;;;;;;;3.08;0.80;;;18.00;94.50;;;;;;6286234;22;20022;-85
2022/05/21 07:03:12;;;;;;;0.55;0.52;;;18.10;92.20;;;;;;6287322;22;20027;-83
2022/05/21 07:09:05;;;;;;;2.08;1.10;;;18.30;90.50;;;;;;6280932;22;20054;-84
2022/05/21 07:11:53;;;;;;;1.88;0.88;;;18.40;90.10;;;;;;6254591;22;20138;-88
2022/05/21 07:14:40;;;;;;;1.13;0.70;;;18.40;87.50;;;;;;6256513;22;20020;-86
2022/05/21 07:17:28;;;;;;;0.90;0.70;;;18.80;86.20;;;;;;6274811;22;20490;-86
2022/05/21 07:20:19;;;;;;;2.70;0.73;;;18.90;82.30;;;;;;6274121;22;20039;-87
2022/05/21 07:23:07;;;;;;;0.98;0.70;;;19.40;85.80;;;;;;6253354;22;20024;-84
2022/05/21 07:25:55;;;;;;;1.80;0.50;;;20.10;90.30;;;;;;6274845;22;20023;-86
2022/05/21 07:28:44;;;;;;;2.97;0.80;;;20.70;77.80;;;;;;6274102;22;20099;-86
2022/05/21 07:31:32;;;;;;;3.45;0.60;;;20.40;76.60;;;;;;6276144;22;20042;-85
2022/05/21 07:34:20;;;;;;;1.45;0.50;;;20.40;72.20;;;;;;6276372;22;20299;-84
2022/05/21 07:37:07;;;;;;;1.13;0.70;;;20.20;73.20;;;;;;6276406;22;20126;-87
2022/05/21 07:39:55;;;;;;;1.08;0.52;;;20.20;74.10;;;;;;6257554;22;20019;-83
2022/05/21 07:42:44;;;;;;;2.17;0.60;;;19.90;74.60;;;;;;6288867;22;20096;-85
2022/05/21 07:45:38;;;;;;;2.05;0.93;;;19.70;75.20;;;;;;6283222;22;20103;-86
2022/05/21 07:48:29;;;;;;;2.85;0.88;;;19.80;73.90;;;;;;6274954;22;20019;-87
2022/05/21 07:51:19;;;;;;;2.78;0.88;;;19.80;74.90;;;;;;6276479;22;20050;-82
2022/05/21 07:54:11;;;;;;;3.92;0.77;;;19.90;74.80;;;;;;6272567;22;20031;-82
2022/05/21 07:57:01;;;;;;;2.22;0.57;;;20.30;71.70;;;;;;6251903;22;20444;-84
2022/05/21 07:59:50;;;;;;;2.03;0.50;;;20.50;72.10;;;;;;6254244;22;20042;-83
2022/05/21 08:02:42;;;;;;;2.53;0.73;;;21.10;72.80;;;;;;6273627;22;20174;-84
2022/05/21 08:05:30;;;;;;;0.80;0.80;;;21.00;69.50;;;;;;6270958;22;20020;-87
2022/05/21 08:08:17;;;;;;;2.85;0.68;;;21.20;71.30;;;;;;6275334;22;20020;-86
2022/05/21 08:11:05;;;;;;;3.35;0.50;;;22.10;65.80;;;;;;6277841;22;20023;-88
2022/05/21 08:13:55;;;;;;;3.30;0.70;;;22.60;65.20;;;;;;6282406;22;20057;-86
2022/05/21 08:16:42;;;;;;;2.65;0.80;;;22.70;62.10;;;;;;6286960;22;20038;-84
2022/05/21 08:19:29;;;;;;;3.33;0.93;;;22.50;62.50;;;;;;6285124;22;20057;-87
2022/05/21 08:28:36;;;;;;;2.03;0.50;;;22.60;67.70;;;;;;6276600;22;20042;-85
2022/05/21 08:31:26;;;;;;;3.80;0.30;;;23.70;58.80;;;;;;6272468;22;20379;-85
2022/05/21 08:34:17;;;;;;;1.00;0.60;;;23.80;56.70;;;;;;6275676;22;20034;-85
2022/05/21 08:37:06;;;;;;;0.88;0.45;;;22.80;57.80;;;;;;6275949;22;20028;-85
2022/05/21 08:39:54;;;;;;;0.75;0.40;;;21.90;61.40;;;;;;6277606;22;20043;-84
2022/05/21 08:42:50;;;;;;;0.50;0.30;;;22.50;60.00;;;;;;6271882;22;20077;-87
2022/05/21 08:46:02;;;;;;;0.40;0.30;;;23.40;61.10;;;;;;6252041;22;20019;-86
2022/05/21 08:48:59;;;;;;;0.47;0.35;;;24.90;57.40;;;;;;6276614;22;20031;-84
2022/05/21 08:51:58;;;;;;;1.40;0.43;;;25.30;51.90;;;;;;6276151;22;20031;-83
2022/05/21 08:54:47;;;;;;;2.70;0.20;;;25.90;50.70;;;;;;6278956;22;20494;-85
2022/05/21 08:57:51;;;;;;;0.60;0.55;;;25.60;50.30;;;;;;6252316;22;20098;-85
2022/05/21 09:00:48;;;;;;;0.57;0.47;;;25.60;51.20;;;;;;6274433;22;20028;-81
2022/05/21 09:03:36;;;;;;;1.17;0.30;;;26.10;52.50;;;;;;6260966;22;20039;-84
2022/05/21 09:06:53;;;;;;;3.75;0.30;;;26.30;46.80;;;;;;6243075;22;20050;-83
2022/05/21 09:10:03;;;;;;;0.90;0.32;;;24.80;48.10;;;;;;6277237;22;20108;-82
2022/05/21 09:13:03;;;;;;;4.97;0.40;;;24.80;48.70;;;;;;6283845;22;20041;-82
2022/05/21 09:19:03;;;;;;;0.63;0.40;;;24.70;52.40;;;;;;6282912;22;20034;-86
2022/05/21 09:22:03;;;;;;;0.77;0.40;;;25.60;48.30;;;;;;6288706;22;20024;-81
2022/05/21 09:24:54;;;;;;;2.45;0.40;;;25.90;46.90;;;;;;6284955;22;20086;-85
2022/05/21 09:27:46;;;;;;;1.02;0.30;;;24.80;46.00;;;;;;6279949;22;20024;-88
2022/05/21 09:30:42;;;;;;;1.35;0.45;;;25.30;50.60;;;;;;6286837;22;20020;-84
2022/05/21 09:33:38;;;;;;;0.68;0.32;;;26.20;44.60;;;;;;6283619;22;20027;-83
2022/05/21 09:36:34;;;;;;;8.10;0.52;;;25.40;44.20;;;;;;6280211;22;20030;-85
2022/05/21 09:39:33;;;;;;;0.55;0.32;;;24.40;47.40;;;;;;6274644;22;20038;-84
2022/05/21 09:45:43;;;;;;;2.72;0.40;;;26.20;44.70;;;;;;6280530;22;20038;-86
2022/05/21 09:48:33;;;;;;;5.22;0.50;;;25.90;45.70;;;;;;6278482;22;20027;-87
2022/05/21 09:51:22;;;;;;;2.22;0.40;;;26.00;44.90;;;;;;6277660;22;20100;-86
2022/05/21 09:54:32;;;;;;;4.90;0.50;;;26.70;46.90;;;;;;6256223;22;20499;-87
2022/05/21 09:57:33;;;;;;;4.30;0.63;;;27.00;41.20;;;;;;6275485;22;20023;-84
2022/05/21 10:00:34;;;;;;;3.88;0.35;;;26.50;46.60;;;;;;6276289;22;20019;-84
2022/05/21 10:03:42;;;;;;;0.45;0.35;;;27.40;47.30;;;;;;6275240;22;20027;-84
2022/05/21 10:06:37;;;;;;;2.05;0.30;;;28.20;40.60;;;;;;6277221;22;20027;-84
2022/05/21 10:12:42;;;;;;;1.38;0.43;;;28.90;43.90;;;;;;6277721;22;20166;-86
2022/05/21 10:15:39;;;;;;;3.55;0.50;;;29.20;38.90;;;;;;6278063;22;20058;-86
2022/05/21 10:18:50;;;;;;;0.75;0.30;;;29.10;43.80;;;;;;6257824;22;20062;-85
2022/05/21 10:22:09;;;;;;;0.75;0.35;;;29.70;38.30;;;;;;6277029;22;20093;-86
2022/05/21 10:25:35;;;;;;;0.70;0.30;;;30.10;38.40;;;;;;6281095;22;20097;-85
2022/05/21 10:29:10;;;;;;;0.35;0.25;;;30.10;35.80;;;;;;6242325;22;20020;-85
2022/05/21 10:32:34;;;;;;;0.43;0.20;;;29.80;34.20;;;;;;6208608;22;20094;-87
2022/05/21 10:35:50;;;;;;;1.13;0.50;;;29.20;36.70;;;;;;6283263;22;20039;-83
2022/05/21 10:39:10;;;;;;;3.30;0.30;;;28.90;37.50;;;;;;6284126;22;20120;-83
2022/05/21 10:42:13;;;;;;;1.10;0.40;;;27.70;38.20;;;;;;6280753;22;20047;-85
2022/05/21 10:45:08;;;;;;;0.55;0.20;;;28.30;37.70;;;;;;6255608;22;20019;-84
2022/05/21 10:48:14;;;;;;;0.85;0.32;;;28.90;37.50;;;;;;6275840;22;20044;-84
2022/05/21 10:51:22;;;;;;;0.75;0.25;;;28.90;36.50;;;;;;6278081;22;20085;-87
2022/05/21 10:54:34;;;;;;;1.00;0.30;;;29.40;36.60;;;;;;6254533;22;20461;-85
2022/05/21 10:57:36;;;;;;;2.05;0.30;;;29.80;35.70;;;;;;6273536;22;20027;-84
2022/05/21 11:00:32;;;;;;;;;;;30.20;40.00;;;;;;6273848;22;20070;-85
2022/05/21 11:03:41;;;;;;;1.85;0.52;;;31.10;36.40;;;;;;6273359;22;19915;-87
2022/05/21 11:06:28;;;;;;;0.25;0.20;;;31.40;38.10;;;;;;6275968;22;20023;-85
2022/05/21 11:10:15;;;;;;;1.67;0.57;;;31.50;36.70;;;;;;6254868;22;20019;-86
2022/05/21 11:13:27;;;;;;;0.80;0.40;;;32.00;37.30;;;;;;6237253;22;20031;-84
2022/05/21 11:16:22;;;;;;;2.15;0.40;;;32.10;37.00;;;;;;6279808;22;20023;-84
2022/05/21 11:19:19;;;;;;;1.75;0.30;;;30.90;31.80;;;;;;6278617;22;20023;-87
2022/05/21 11:22:13;;;;;;;0.50;0.40;;;30.50;34.90;;;;;;6278035;22;20098;-89
2022/05/21 11:25:19;;;;;;;2.65;0.40;;;31.00;35.20;;;;;;6275310;22;20055;-86
2022/05/21 11:28:26;;;;;;;0.57;0.30;;;31.00;33.80;;;;;;6280315;22;20034;-84
2022/05/21 11:38:26;;;;;;;1.85;0.30;;;30.70;33.50;;;;;;6286629;22;20020;-85
2022/05/21 11:41:27;;;;;;;2.30;0.28;;;31.60;31.20;;;;;;6286399;22;20035;-84
2022/05/21 11:47:26;;;;;;;0.88;0.30;;;30.10;32.50;;;;;;6291779;22;20054;-77
2022/05/21 11:50:26;;;;;;;0.90;0.38;;;29.40;34.80;;;;;;6294431;22;20248;-83
2022/05/21 11:53:37;;;;;;;0.80;0.40;;;29.90;37.50;;;;;;6287687;22;20249;-86
2022/05/21 11:57:01;;;;;;;1.95;0.43;;;30.70;38.50;;;;;;6284514;22;20070;-85
2022/05/21 11:59:51;;;;;;;1.13;0.40;;;31.30;37.80;;;;;;6289415;22;20035;-85
2022/05/21 12:03:02;;;;;;;1.73;0.47;;;32.30;35.80;;;;;;6279732;22;20085;-85
2022/05/21 12:05:53;;;;;;;2.63;0.40;;;32.20;34.80;;;;;;6276097;22;20412;-85
2022/05/21 12:08:47;;;;;;;1.00;0.45;;;32.90;34.50;;;;;;6256600;22;20412;-83
2022/05/21 12:11:41;;;;;;;0.77;0.30;;;32.90;34.80;;;;;;6275477;22;20035;-85
2022/05/21 12:14:53;;;;;;;3.55;0.47;;;33.30;34.90;;;;;;6276034;22;20405;-84
2022/05/21 12:18:03;;;;;;;0.80;0.40;;;33.90;34.10;;;;;;6277576;22;20035;-86
2022/05/21 12:20:50;;;;;;;3.60;0.45;;;32.50;32.10;;;;;;6275120;22;20027;-85
2022/05/21 12:23:42;;;;;;;2.92;0.57;;;32.50;33.90;;;;;;6273964;22;20419;-85
2022/05/21 12:26:33;;;;;;;0.70;0.35;;;32.40;29.60;;;;;;6274200;22;20024;-86
2022/05/21 12:29:24;;;;;;;2.70;0.40;;;32.90;33.10;;;;;;6281974;22;20051;-82
2022/05/21 12:32:16;;;;;;;2.53;0.40;;;33.30;32.10;;;;;;6259586;22;20043;-84
2022/05/21 12:35:23;;;;;;;2.65;0.60;;;32.80;33.00;;;;;;6281532;22;20438;-87
2022/05/21 12:38:27;;;;;;;0.82;0.40;;;32.60;31.70;;;;;;6263904;22;20057;-86
2022/05/21 12:41:22;;;;;;;3.40;0.50;;;32.00;29.90;;;;;;6283369;22;20019;-87
2022/05/21 12:44:12;;;;;;;1.33;0.35;;;31.30;35.90;;;;;;6282593;22;20315;-86
2022/05/21 12:47:00;;;;;;;1.00;0.40;;;31.10;36.30;;;;;;6276229;22;20027;-85
2022/05/21 12:49:50;;;;;;;2.67;0.77;;;30.50;38.30;;;;;;6251667;22;20019;-85
2022/05/21 12:52:55;;;;;;;4.05;0.60;;;30.60;36.80;;;;;;6253293;22;20457;-85
2022/05/21 12:55:45;;;;;;;1.33;0.40;;;30.80;34.10;;;;;;6275431;22;20138;-87
2022/05/21 12:58:38;;;;;;;2.15;0.60;;;30.80;36.70;;;;;;6278661;22;20031;-86
2022/05/21 13:01:29;;;;;;;0.95;0.43;;;30.60;35.50;;;;;;6257938;22;20447;-84
2022/05/21 13:04:33;;;;;;;1.42;0.30;;;31.10;35.50;;;;;;6278151;22;20027;-86
2022/05/21 13:07:28;;;;;;;3.53;0.45;;;32.40;35.50;;;;;;6278329;22;20073;-87
2022/05/21 13:10:24;;;;;;;2.97;0.50;;;32.20;33.70;;;;;;6277159;22;20081;-86
2022/05/21 13:13:19;;;;;;;1.52;0.50;;;31.50;35.40;;;;;;6273692;22;20027;-85
2022/05/21 13:16:30;;;;;;;0.90;0.43;;;31.30;37.40;;;;;;6278638;22;20051;-85
2022/05/21 13:19:36;;;;;;;1.80;0.63;;;32.10;32.50;;;;;;6275796;22;20024;-84
2022/05/21 13:23:01;;;;;;;1.85;0.40;;;33.20;31.20;;;;;;6276708;22;20315;-85
2022/05/21 13:25:55;;;;;;;1.27;0.60;;;33.10;31.10;;;;;;6274778;22;20115;-83
2022/05/21 13:28:43;;;;;;;2.25;0.60;;;32.00;30.60;;;;;;6253172;22;20046;-82
2022/05/21 13:31:32;;;;;;;1.33;0.60;;;32.10;32.00;;;;;;6275042;22;20027;-86
2022/05/21 13:34:26;;;;;;;3.47;0.50;;;31.70;33.00;;;;;;6272362;22;20031;-86
2022/05/21 13:37:15;;;;;;;2.75;0.43;;;32.10;33.60;;;;;;6274308;22;20034;-84
2022/05/21 13:40:24;;;;;;;1.65;0.55;;;32.40;32.10;;;;;;6272880;22;20047;-83
2022/05/21 13:43:13;;;;;;;1.58;0.40;;;32.70;33.20;;;;;;6270401;22;20113;-83
2022/05/21 13:46:04;;;;;;;1.05;0.57;;;33.40;31.60;;;;;;6248099;22;20024;-82
2022/05/21 13:48:57;;;;;;;0.47;0.30;;;33.60;28.50;;;;;;6271084;22;20328;-83
2022/05/21 13:51:49;;;;;;;0.40;0.25;;;33.60;27.30;;;;;;6270858;22;20047;-83
2022/05/21 13:54:39;;;;;;;1.13;0.30;;;34.10;28.20;;;;;;6274123;22;20037;-87
2022/05/21 13:57:31;;;;;;;1.17;0.43;;;33.00;26.20;;;;;;6273539;22;20079;-84
2022/05/21 14:00:22;;;;;;;2.03;0.30;;;31.40;28.20;;;;;;6275195;22;20024;-83
2022/05/21 14:03:37;;;;;;;4.63;0.50;;;30.50;28.50;;;;;;6273698;22;20034;-86
2022/05/21 14:06:26;;;;;;;0.90;0.40;;;30.00;29.10;;;;;;6271335;22;20024;-82
2022/05/21 14:09:23;;;;;;;0.82;0.20;;;30.10;31.60;;;;;;6272070;22;20027;-84
2022/05/21 14:12:24;;;;;;;0.77;0.40;;;30.30;29.20;;;;;;6248348;22;20074;-85
2022/05/21 14:15:28;;;;;;;3.93;0.30;;;30.80;30.50;;;;;;6273323;22;20027;-88
2022/05/21 14:18:29;;;;;;;0.47;0.22;;;31.40;27.20;;;;;;6279951;22;20239;-87
2022/05/21 14:21:22;;;;;;;2.40;0.50;;;31.50;31.30;;;;;;6256335;22;20113;-82
2022/05/21 14:24:25;;;;;;;1.63;0.30;;;31.30;29.30;;;;;;6271360;22;20028;-84
2022/05/21 14:27:15;;;;;;;1.95;0.40;;;31.10;27.70;;;;;;6272760;22;20027;-85
2022/05/21 14:30:09;;;;;;;0.60;0.30;;;31.40;29.20;;;;;;6271536;22;20043;-86
2022/05/21 14:32:57;;;;;;;0.98;0.30;;;31.20;27.70;;;;;;6272569;22;20027;-87
2022/05/21 14:35:48;;;;;;;1.92;0.20;;;30.90;28.70;;;;;;6249760;22;20027;-81
2022/05/21 14:38:35;;;;;;;0.32;0.20;;;30.00;30.00;;;;;;6270630;22;20501;-86
2022/05/21 14:41:36;;;;;;;1.73;0.68;;;28.40;31.30;;;;;;6250927;22;20089;-82
2022/05/21 14:44:27;;;;;;;3.08;0.32;;;27.00;33.90;;;;;;6269374;22;20117;-84
2022/05/21 14:53:36;;;;;;;39.38;4.07;;;29.20;30.60;;;;;;6270640;22;20031;-87
2022/05/21 14:56:31;;;;;;;1.73;0.50;;;29.90;31.10;;;;;;6271168;22;20306;-83
2022/05/21 14:59:18;;;;;;;0.75;0.40;;;29.40;30.70;;;;;;6271188;22;20034;-84
2022/05/21 15:02:09;;;;;;;5.90;0.50;;;28.10;35.10;;;;;;6269191;22;20039;-85
2022/05/21 15:04:56;;;;;;;1.15;0.38;;;26.60;36.00;;;;;;6251103;22;20027;-85
2022/05/21 15:07:47;;;;;;;1.30;0.40;;;25.50;37.10;;;;;;6271151;22;20038;-87
2022/05/21 15:10:39;;;;;;;2.72;0.50;;;24.70;36.20;;;;;;6253761;22;20020;-83
2022/05/21 15:13:30;;;;;;;3.72;0.30;;;24.10;37.60;;;;;;6270942;22;20085;-82
2022/05/21 15:16:17;;;;;;;1.10;0.43;;;23.80;41.40;;;;;;6274413;22;20027;-85
2022/05/21 15:19:05;;;;;;;1.08;0.50;;;23.70;40.00;;;;;;6270946;22;20291;-84
2022/05/21 15:21:57;;;;;;;1.58;0.50;;;23.60;40.30;;;;;;6274747;22;20383;-84
2022/05/21 15:24:45;;;;;;;2.67;0.60;;;23.30;41.20;;;;;;6274699;22;20027;-82
2022/05/21 15:27:38;;;;;;;1.25;0.40;;;23.00;42.80;;;;;;6276983;22;20023;-82
2022/05/21 15:30:33;;;;;;;2.92;0.45;;;22.80;41.30;;;;;;6271723;22;20303;-82
2022/05/21 15:33:26;;;;;;;2.45;0.70;;;22.80;42.10;;;;;;6279213;22;20055;-84
2022/05/21 15:36:13;;;;;;;0.63;0.28;;;22.70;41.50;;;;;;6280798;22;20035;-84
2022/05/21 15:39:02;;;;;;;3.53;0.57;;;22.70;43.90;;;;;;6282898;22;20024;-83
2022/05/21 15:41:50;;;;;;;1.60;0.40;;;22.70;43.20;;;;;;6253284;22;20319;-84
2022/05/21 15:44:41;;;;;;;1.77;0.60;;;22.80;45.70;;;;;;6272866;22;20054;-83
2022/05/21 15:47:28;;;;;;;0.93;0.50;;;23.10;45.70;;;;;;6282067;22;20023;-81
2022/05/21 15:50:16;;;;;;;1.08;0.40;;;23.60;43.80;;;;;;6262597;22;20085;-86
2022/05/21 15:53:04;;;;;;;1.60;0.40;;;23.90;42.30;;;;;;6283440;22;20031;-83